Butte, MT

12:52 PM MDT on September 17, 2014 (GMT -0600)
Mooney | Change Station
CLOSE
Current Station
Airport
Location: Butte,
Elevation: 5545 ft
Nearby Weather Stations

Elev 5545 ft 45.95 °N, 112.50 °W | Updated 59 minutes ago

Clear
Clear
70 °F
Feels Like 70 °F
N
4
Wind Variable Wind from NW

Today
High -- | Low -- °F
--% Chance of Precip.
Yesterday
High -- | Low -- °F
Precip. -- in
7:10 AM 7:37 PM
Waning Crescent, 34% visible
Pressure 30.03 in
Visibility 10.0 miles
Clouds Clear
Dew Point 43 °F
Humidity 38%
Rainfall 0.00 in
Snow Depth 1 in , 0 in , 0 in
UV 6 out of 12
Pollen 6.00 out of 12
Air Quality Not available.
Flu Activity Not available.
METAR KBTM 171753Z AUTO 32003KT 10SM CLR 21/06 A3003

More Conditions Fewer Conditions

Pressure 30.03 in
Visibility 10.0 miles
Clouds Clear
Dew Point 43 °F
Humidity 38%
Rainfall 0.00 in
Snow Depth 1 in , 0 in , 0 in
UV 6 out of 12
Pollen 6.00 out of 12
Air Quality Not available.
Flu Activity Not available.
METAR KBTM 171753Z AUTO 32003KT 10SM CLR 21/06 A3003

More Conditions Fewer Conditions

10-Day Weather Forecast

Almanac

Astronomy

Sep. 17, 2014 Rise Set
Actual Time 7:10 AM MDT 7:37 PM MDT
Civil Twilight 6:40 AM MDT 8:07 PM MDT
Nautical Twilight 6:05 AM MDT 8:42 PM MDT
Astronomical Twilight 5:28 AM MDT 9:18 PM MDT
Moon 1:00 AM MDT 4:02 PM MDT
Length of Visible Light 13h 26m
Length of Day
12h 26m
Tomorrow will be 3m 13s shorter.
Waning Crescent, 34% of the Moon is Illuminated
Today
Waning Crescent
Sep 24
New
Oct 1
First Quarter
Oct 8
Full
Oct 15
Last Quarter

Today's Extremes

State Highs State Lows

Community

WunderPhotos

Upload Photos

1,754,127 photos uploaded!

WunderBlogs® & News

Nearby

Snow Depth

Station Depth Elevation
Porcupine 1 in 6500 ft
Rocker Peak 0 in 8000 ft
Badger Pass 0 in 6900 ft
Flattop Mountain 0 in 6300 ft
Calvert Creek 0 in 6430 ft

Earthquake Activity

City Distance Mag. Time & Date
No recent earthquake activity has been reported nearby.
Minimum magnitude displayed is 2.5.

Coastal Water Temperatures

Place Temperature
No Stations Reporting

Nearby Weather Stations